sensor_id;sensor_type;location;lat;lon;timestamp;P1;durP1;ratioP1;P2;durP2;ratioP2
9436;SDS011;4757;59.334;18.034;2023-02-15T00:02:01;6.17;;;3.93;;
9436;SDS011;4757;59.334;18.034;2023-02-15T00:04:29;6.07;;;3.60;;
9436;SDS011;4757;59.334;18.034;2023-02-15T00:07:16;16.53;;;5.03;;
9436;SDS011;4757;59.334;18.034;2023-02-15T00:09:45;5.53;;;3.90;;
9436;SDS011;4757;59.334;18.034;2023-02-15T00:12:13;5.47;;;3.90;;
9436;SDS011;4757;59.334;18.034;2023-02-15T00:14:41;5.80;;;3.20;;
9436;SDS011;4757;59.334;18.034;2023-02-15T00:17:08;4.43;;;3.47;;
9436;SDS011;4757;59.334;18.034;2023-02-15T00:19:35;8.90;;;3.60;;
9436;SDS011;4757;59.334;18.034;2023-02-15T00:22:03;5.43;;;3.40;;
9436;SDS011;4757;59.334;18.034;2023-02-15T00:24:30;4.70;;;3.77;;
9436;SDS011;4757;59.334;18.034;2023-02-15T00:26:57;7.03;;;3.87;;
9436;SDS011;4757;59.334;18.034;2023-02-15T00:29:24;5.80;;;3.70;;
9436;SDS011;4757;59.334;18.034;2023-02-15T00:31:52;11.27;;;3.73;;
9436;SDS011;4757;59.334;18.034;2023-02-15T00:34:23;7.60;;;3.50;;
9436;SDS011;4757;59.334;18.034;2023-02-15T00:36:52;5.23;;;4.10;;
9436;SDS011;4757;59.334;18.034;2023-02-15T00:39:19;7.07;;;3.53;;
9436;SDS011;4757;59.334;18.034;2023-02-15T00:41:48;9.90;;;3.77;;
9436;SDS011;4757;59.334;18.034;2023-02-15T00:44:15;4.60;;;3.63;;
9436;SDS011;4757;59.334;18.034;2023-02-15T00:46:42;6.97;;;4.03;;
9436;SDS011;4757;59.334;18.034;2023-02-15T00:49:10;8.93;;;3.60;;
9436;SDS011;4757;59.334;18.034;2023-02-15T00:51:37;5.10;;;3.20;;
9436;SDS011;4757;59.334;18.034;2023-02-15T00:54:05;5.63;;;4.17;;
9436;SDS011;4757;59.334;18.034;2023-02-15T00:56:33;6.10;;;3.47;;
9436;SDS011;4757;59.334;18.034;2023-02-15T00:59:02;5.37;;;3.50;;
9436;SDS011;4757;59.334;18.034;2023-02-15T01:01:30;4.33;;;3.60;;
9436;SDS011;4757;59.334;18.034;2023-02-15T01:03:57;5.17;;;3.80;;
9436;SDS011;4757;59.334;18.034;2023-02-15T01:06:24;4.53;;;3.67;;
9436;SDS011;4757;59.334;18.034;2023-02-15T01:08:51;6.70;;;3.93;;
9436;SDS011;4757;59.334;18.034;2023-02-15T01:11:19;7.67;;;4.10;;
9436;SDS011;4757;59.334;18.034;2023-02-15T01:13:49;5.97;;;3.87;;
9436;SDS011;4757;59.334;18.034;2023-02-15T01:16:17;4.63;;;3.40;;
9436;SDS011;4757;59.334;18.034;2023-02-15T01:18:44;4.60;;;3.63;;
9436;SDS011;4757;59.334;18.034;2023-02-15T01:21:12;6.43;;;3.63;;
9436;SDS011;4757;59.334;18.034;2023-02-15T01:23:42;5.13;;;3.60;;
9436;SDS011;4757;59.334;18.034;2023-02-15T01:26:10;6.83;;;3.83;;
9436;SDS011;4757;59.334;18.034;2023-02-15T01:28:37;5.13;;;3.83;;
9436;SDS011;4757;59.334;18.034;2023-02-15T01:31:08;6.77;;;3.80;;
9436;SDS011;4757;59.334;18.034;2023-02-15T01:33:37;3.80;;;3.27;;
9436;SDS011;4757;59.334;18.034;2023-02-15T01:36:05;6.07;;;3.00;;
9436;SDS011;4757;59.334;18.034;2023-02-15T01:38:32;7.03;;;3.80;;
9436;SDS011;4757;59.334;18.034;2023-02-15T01:41:00;8.43;;;3.80;;
9436;SDS011;4757;59.334;18.034;2023-02-15T01:44:40;5.77;;;3.93;;
9436;SDS011;4757;59.334;18.034;2023-02-15T01:47:02;5.60;;;3.70;;
9436;SDS011;4757;59.334;18.034;2023-02-15T01:49:30;5.57;;;3.87;;
9436;SDS011;4757;59.334;18.034;2023-02-15T01:51:57;4.70;;;3.40;;
9436;SDS011;4757;59.334;18.034;2023-02-15T01:54:25;4.13;;;3.50;;
9436;SDS011;4757;59.334;18.034;2023-02-15T01:56:58;5.53;;;3.57;;
9436;SDS011;4757;59.334;18.034;2023-02-15T01:59:31;8.57;;;3.43;;
9436;SDS011;4757;59.334;18.034;2023-02-15T02:02:00;7.73;;;4.50;;
9436;SDS011;4757;59.334;18.034;2023-02-15T02:04:33;3.90;;;3.50;;
9436;SDS011;4757;59.334;18.034;2023-02-15T02:07:08;6.17;;;3.60;;
9436;SDS011;4757;59.334;18.034;2023-02-15T02:09:38;5.10;;;3.70;;
9436;SDS011;4757;59.334;18.034;2023-02-15T02:12:06;5.07;;;3.67;;
9436;SDS011;4757;59.334;18.034;2023-02-15T02:14:34;5.47;;;3.50;;
9436;SDS011;4757;59.334;18.034;2023-02-15T02:19:54;5.90;;;3.63;;
9436;SDS011;4757;59.334;18.034;2023-02-15T02:22:52;7.13;;;3.47;;
9436;SDS011;4757;59.334;18.034;2023-02-15T02:35:33;3.83;;;3.37;;
9436;SDS011;4757;59.334;18.034;2023-02-15T02:49:32;7.93;;;4.10;;
9436;SDS011;4757;59.334;18.034;2023-02-15T02:55:13;10.63;;;5.20;;
9436;SDS011;4757;59.334;18.034;2023-02-15T02:57:53;7.53;;;4.17;;
9436;SDS011;4757;59.334;18.034;2023-02-15T03:00:24;11.37;;;5.70;;
9436;SDS011;4757;59.334;18.034;2023-02-15T03:05:57;5.97;;;4.20;;
9436;SDS011;4757;59.334;18.034;2023-02-15T03:08:31;5.60;;;4.07;;
9436;SDS011;4757;59.334;18.034;2023-02-15T03:11:12;5.87;;;4.07;;
9436;SDS011;4757;59.334;18.034;2023-02-15T03:13:44;7.20;;;3.93;;
9436;SDS011;4757;59.334;18.034;2023-02-15T03:16:20;6.43;;;3.83;;
9436;SDS011;4757;59.334;18.034;2023-02-15T03:19:17;5.90;;;4.37;;
9436;SDS011;4757;59.334;18.034;2023-02-15T03:21:54;9.07;;;4.37;;
9436;SDS011;4757;59.334;18.034;2023-02-15T03:24:34;6.20;;;4.17;;
9436;SDS011;4757;59.334;18.034;2023-02-15T03:27:07;8.00;;;4.57;;
9436;SDS011;4757;59.334;18.034;2023-02-15T03:33:04;6.27;;;4.10;;
9436;SDS011;4757;59.334;18.034;2023-02-15T03:35:44;8.03;;;5.10;;
9436;SDS011;4757;59.334;18.034;2023-02-15T03:38:21;7.97;;;4.60;;
9436;SDS011;4757;59.334;18.034;2023-02-15T03:40:59;7.27;;;4.70;;
9436;SDS011;4757;59.334;18.034;2023-02-15T03:49:06;10.17;;;4.63;;
9436;SDS011;4757;59.334;18.034;2023-02-15T03:51:37;7.43;;;4.87;;
9436;SDS011;4757;59.334;18.034;2023-02-15T03:54:15;8.33;;;5.47;;
9436;SDS011;4757;59.334;18.034;2023-02-15T03:57:07;9.73;;;5.73;;
9436;SDS011;4757;59.334;18.034;2023-02-15T04:00:15;7.93;;;5.33;;
9436;SDS011;4757;59.334;18.034;2023-02-15T04:06:00;7.63;;;5.93;;
9436;SDS011;4757;59.334;18.034;2023-02-15T04:08:31;9.23;;;5.80;;
9436;SDS011;4757;59.334;18.034;2023-02-15T04:11:22;10.27;;;5.60;;
9436;SDS011;4757;59.334;18.034;2023-02-15T04:13:49;8.33;;;5.60;;
9436;SDS011;4757;59.334;18.034;2023-02-15T04:16:27;10.37;;;5.90;;
9436;SDS011;4757;59.334;18.034;2023-02-15T04:18:59;10.17;;;6.17;;
9436;SDS011;4757;59.334;18.034;2023-02-15T04:21:46;10.40;;;7.47;;
9436;SDS011;4757;59.334;18.034;2023-02-15T04:24:31;8.33;;;5.30;;
9436;SDS011;4757;59.334;18.034;2023-02-15T04:27:18;10.67;;;6.37;;
9436;SDS011;4757;59.334;18.034;2023-02-15T04:29:45;9.83;;;7.03;;
9436;SDS011;4757;59.334;18.034;2023-02-15T04:32:13;9.10;;;5.97;;
9436;SDS011;4757;59.334;18.034;2023-02-15T04:34:40;7.87;;;5.77;;
9436;SDS011;4757;59.334;18.034;2023-02-15T04:37:10;8.20;;;6.37;;
9436;SDS011;4757;59.334;18.034;2023-02-15T04:39:37;8.50;;;6.57;;
9436;SDS011;4757;59.334;18.034;2023-02-15T04:42:04;11.50;;;6.03;;
9436;SDS011;4757;59.334;18.034;2023-02-15T04:44:37;8.07;;;6.27;;
9436;SDS011;4757;59.334;18.034;2023-02-15T04:47:08;11.00;;;6.07;;
9436;SDS011;4757;59.334;18.034;2023-02-15T04:49:35;9.10;;;6.40;;
9436;SDS011;4757;59.334;18.034;2023-02-15T04:52:04;9.20;;;6.27;;
9436;SDS011;4757;59.334;18.034;2023-02-15T04:54:33;10.67;;;6.67;;
9436;SDS011;4757;59.334;18.034;2023-02-15T04:57:00;9.77;;;6.73;;
9436;SDS011;4757;59.334;18.034;2023-02-15T04:59:27;9.50;;;6.00;;
9436;SDS011;4757;59.334;18.034;2023-02-15T05:01:58;8.77;;;6.50;;
9436;SDS011;4757;59.334;18.034;2023-02-15T05:04:25;12.27;;;6.83;;
9436;SDS011;4757;59.334;18.034;2023-02-15T05:06:52;9.50;;;6.57;;
9436;SDS011;4757;59.334;18.034;2023-02-15T05:09:25;8.40;;;6.40;;
9436;SDS011;4757;59.334;18.034;2023-02-15T05:11:54;11.00;;;7.40;;
9436;SDS011;4757;59.334;18.034;2023-02-15T05:14:21;12.67;;;7.00;;
9436;SDS011;4757;59.334;18.034;2023-02-15T05:16:49;13.43;;;7.37;;
9436;SDS011;4757;59.334;18.034;2023-02-15T05:19:16;14.53;;;7.17;;
9436;SDS011;4757;59.334;18.034;2023-02-15T05:21:43;10.23;;;7.27;;
9436;SDS011;4757;59.334;18.034;2023-02-15T05:24:12;11.50;;;7.47;;
9436;SDS011;4757;59.334;18.034;2023-02-15T05:26:57;10.57;;;7.33;;
9436;SDS011;4757;59.334;18.034;2023-02-15T05:29:43;11.30;;;7.00;;
9436;SDS011;4757;59.334;18.034;2023-02-15T05:32:13;9.87;;;6.83;;
9436;SDS011;4757;59.334;18.034;2023-02-15T05:34:43;11.77;;;6.60;;
9436;SDS011;4757;59.334;18.034;2023-02-15T05:37:11;14.30;;;7.73;;
9436;SDS011;4757;59.334;18.034;2023-02-15T05:39:38;13.47;;;8.53;;
9436;SDS011;4757;59.334;18.034;2023-02-15T05:42:05;13.47;;;7.17;;
9436;SDS011;4757;59.334;18.034;2023-02-15T05:44:40;15.50;;;7.70;;
9436;SDS011;4757;59.334;18.034;2023-02-15T05:47:09;12.57;;;7.27;;
9436;SDS011;4757;59.334;18.034;2023-02-15T05:49:36;11.10;;;7.63;;
9436;SDS011;4757;59.334;18.034;2023-02-15T05:52:05;11.73;;;7.47;;
9436;SDS011;4757;59.334;18.034;2023-02-15T05:54:32;9.23;;;6.23;;
9436;SDS011;4757;59.334;18.034;2023-02-15T05:57:03;11.23;;;7.80;;
9436;SDS011;4757;59.334;18.034;2023-02-15T05:59:34;12.77;;;8.40;;
9436;SDS011;4757;59.334;18.034;2023-02-15T06:02:01;9.53;;;6.47;;
9436;SDS011;4757;59.334;18.034;2023-02-15T06:04:30;13.07;;;7.53;;
9436;SDS011;4757;59.334;18.034;2023-02-15T06:06:58;11.57;;;7.97;;
9436;SDS011;4757;59.334;18.034;2023-02-15T06:09:31;13.17;;;7.17;;
9436;SDS011;4757;59.334;18.034;2023-02-15T06:12:01;14.97;;;7.03;;
9436;SDS011;4757;59.334;18.034;2023-02-15T06:14:28;11.50;;;7.90;;
9436;SDS011;4757;59.334;18.034;2023-02-15T06:17:03;12.47;;;8.20;;
9436;SDS011;4757;59.334;18.034;2023-02-15T06:19:31;13.47;;;6.90;;
9436;SDS011;4757;59.334;18.034;2023-02-15T06:21:58;10.63;;;7.10;;
9436;SDS011;4757;59.334;18.034;2023-02-15T06:24:27;12.13;;;7.20;;
9436;SDS011;4757;59.334;18.034;2023-02-15T06:26:54;14.17;;;8.00;;
9436;SDS011;4757;59.334;18.034;2023-02-15T06:29:22;11.70;;;8.17;;
9436;SDS011;4757;59.334;18.034;2023-02-15T06:31:52;12.53;;;8.63;;
9436;SDS011;4757;59.334;18.034;2023-02-15T06:34:20;12.90;;;7.57;;
9436;SDS011;4757;59.334;18.034;2023-02-15T06:36:47;12.77;;;8.43;;
9436;SDS011;4757;59.334;18.034;2023-02-15T06:42:17;9.93;;;6.97;;
9436;SDS011;4757;59.334;18.034;2023-02-15T06:44:44;10.70;;;7.73;;
9436;SDS011;4757;59.334;18.034;2023-02-15T06:47:14;12.57;;;7.83;;
9436;SDS011;4757;59.334;18.034;2023-02-15T06:49:41;18.07;;;7.70;;
9436;SDS011;4757;59.334;18.034;2023-02-15T06:52:11;11.73;;;6.70;;
9436;SDS011;4757;59.334;18.034;2023-02-15T06:54:39;15.90;;;9.10;;
9436;SDS011;4757;59.334;18.034;2023-02-15T06:57:20;11.70;;;7.40;;
9436;SDS011;4757;59.334;18.034;2023-02-15T06:59:51;9.90;;;6.43;;
9436;SDS011;4757;59.334;18.034;2023-02-15T07:02:24;12.80;;;8.50;;
9436;SDS011;4757;59.334;18.034;2023-02-15T07:04:57;10.20;;;6.77;;
9436;SDS011;4757;59.334;18.034;2023-02-15T07:07:24;16.50;;;7.77;;
9436;SDS011;4757;59.334;18.034;2023-02-15T07:09:57;9.53;;;7.13;;
9436;SDS011;4757;59.334;18.034;2023-02-15T07:12:29;9.97;;;7.10;;
9436;SDS011;4757;59.334;18.034;2023-02-15T07:15:11;12.43;;;7.00;;
9436;SDS011;4757;59.334;18.034;2023-02-15T07:18:08;11.27;;;7.40;;
9436;SDS011;4757;59.334;18.034;2023-02-15T07:20:45;10.23;;;7.63;;
9436;SDS011;4757;59.334;18.034;2023-02-15T07:23:19;8.43;;;6.33;;
9436;SDS011;4757;59.334;18.034;2023-02-15T07:25:49;12.97;;;7.60;;
9436;SDS011;4757;59.334;18.034;2023-02-15T07:28:34;12.40;;;6.87;;
9436;SDS011;4757;59.334;18.034;2023-02-15T07:31:18;9.23;;;6.63;;
9436;SDS011;4757;59.334;18.034;2023-02-15T07:33:47;10.17;;;6.27;;
9436;SDS011;4757;59.334;18.034;2023-02-15T07:36:16;8.73;;;7.17;;
9436;SDS011;4757;59.334;18.034;2023-02-15T07:38:45;13.60;;;6.67;;
9436;SDS011;4757;59.334;18.034;2023-02-15T07:41:22;11.80;;;7.10;;
9436;SDS011;4757;59.334;18.034;2023-02-15T07:43:55;10.73;;;7.03;;
9436;SDS011;4757;59.334;18.034;2023-02-15T07:46:50;12.83;;;7.53;;
9436;SDS011;4757;59.334;18.034;2023-02-15T07:49:20;9.53;;;6.90;;
9436;SDS011;4757;59.334;18.034;2023-02-15T07:51:55;8.23;;;5.67;;
9436;SDS011;4757;59.334;18.034;2023-02-15T07:57:07;10.83;;;6.57;;
9436;SDS011;4757;59.334;18.034;2023-02-15T07:59:47;11.30;;;6.77;;
9436;SDS011;4757;59.334;18.034;2023-02-15T08:02:16;8.67;;;5.93;;
9436;SDS011;4757;59.334;18.034;2023-02-15T08:04:43;8.73;;;6.53;;
9436;SDS011;4757;59.334;18.034;2023-02-15T08:07:19;10.00;;;5.57;;
9436;SDS011;4757;59.334;18.034;2023-02-15T08:10:15;8.13;;;6.00;;
9436;SDS011;4757;59.334;18.034;2023-02-15T08:13:03;9.43;;;6.57;;
9436;SDS011;4757;59.334;18.034;2023-02-15T08:15:35;10.40;;;5.50;;
9436;SDS011;4757;59.334;18.034;2023-02-15T08:18:07;9.90;;;6.80;;
9436;SDS011;4757;59.334;18.034;2023-02-15T08:20:39;8.63;;;6.00;;
9436;SDS011;4757;59.334;18.034;2023-02-15T08:23:11;9.10;;;5.57;;
9436;SDS011;4757;59.334;18.034;2023-02-15T08:28:40;10.07;;;6.17;;
9436;SDS011;4757;59.334;18.034;2023-02-15T08:31:13;9.80;;;5.93;;
9436;SDS011;4757;59.334;18.034;2023-02-15T08:33:46;11.20;;;6.30;;
9436;SDS011;4757;59.334;18.034;2023-02-15T08:36:16;8.67;;;6.10;;
9436;SDS011;4757;59.334;18.034;2023-02-15T08:38:45;9.07;;;5.60;;
9436;SDS011;4757;59.334;18.034;2023-02-15T08:41:21;9.13;;;6.37;;
9436;SDS011;4757;59.334;18.034;2023-02-15T08:43:58;6.90;;;5.60;;
9436;SDS011;4757;59.334;18.034;2023-02-15T08:46:31;8.20;;;6.10;;
9436;SDS011;4757;59.334;18.034;2023-02-15T08:49:05;11.57;;;6.30;;
9436;SDS011;4757;59.334;18.034;2023-02-15T08:51:38;8.57;;;5.53;;
9436;SDS011;4757;59.334;18.034;2023-02-15T08:54:18;10.17;;;5.90;;
9436;SDS011;4757;59.334;18.034;2023-02-15T08:56:54;8.40;;;5.87;;
9436;SDS011;4757;59.334;18.034;2023-02-15T08:59:29;7.53;;;5.43;;
9436;SDS011;4757;59.334;18.034;2023-02-15T09:01:58;10.97;;;5.87;;
9436;SDS011;4757;59.334;18.034;2023-02-15T09:04:27;7.63;;;5.33;;
9436;SDS011;4757;59.334;18.034;2023-02-15T09:07:12;13.27;;;6.10;;
9436;SDS011;4757;59.334;18.034;2023-02-15T09:10:03;7.10;;;4.77;;
9436;SDS011;4757;59.334;18.034;2023-02-15T09:13:11;9.60;;;5.30;;
9436;SDS011;4757;59.334;18.034;2023-02-15T09:15:46;8.10;;;5.40;;
9436;SDS011;4757;59.334;18.034;2023-02-15T09:18:19;8.13;;;5.20;;
9436;SDS011;4757;59.334;18.034;2023-02-15T09:20:51;10.13;;;5.30;;
9436;SDS011;4757;59.334;18.034;2023-02-15T09:23:18;8.00;;;6.10;;
9436;SDS011;4757;59.334;18.034;2023-02-15T09:25:52;9.33;;;5.63;;
9436;SDS011;4757;59.334;18.034;2023-02-15T09:28:23;10.07;;;5.87;;
9436;SDS011;4757;59.334;18.034;2023-02-15T09:30:52;8.83;;;5.80;;
9436;SDS011;4757;59.334;18.034;2023-02-15T09:33:26;11.27;;;6.00;;
9436;SDS011;4757;59.334;18.034;2023-02-15T09:35:56;7.90;;;5.30;;
9436;SDS011;4757;59.334;18.034;2023-02-15T09:38:24;6.40;;;5.20;;
9436;SDS011;4757;59.334;18.034;2023-02-15T09:46:53;6.77;;;4.53;;
9436;SDS011;4757;59.334;18.034;2023-02-15T09:58:14;9.50;;;5.47;;
9436;SDS011;4757;59.334;18.034;2023-02-15T10:11:52;8.63;;;4.63;;
9436;SDS011;4757;59.334;18.034;2023-02-15T10:15:02;6.17;;;5.03;;
9436;SDS011;4757;59.334;18.034;2023-02-15T10:28:50;7.40;;;4.43;;
9436;SDS011;4757;59.334;18.034;2023-02-15T10:36:53;8.57;;;4.63;;
9436;SDS011;4757;59.334;18.034;2023-02-15T10:54:44;8.43;;;5.63;;
9436;SDS011;4757;59.334;18.034;2023-02-15T11:00:25;11.23;;;5.70;;
9436;SDS011;4757;59.334;18.034;2023-02-15T11:08:29;9.87;;;6.40;;
9436;SDS011;4757;59.334;18.034;2023-02-15T11:11:01;11.63;;;6.33;;
9436;SDS011;4757;59.334;18.034;2023-02-15T11:13:38;12.37;;;6.43;;
9436;SDS011;4757;59.334;18.034;2023-02-15T11:16:17;11.77;;;6.17;;
9436;SDS011;4757;59.334;18.034;2023-02-15T11:21:26;10.93;;;6.67;;
9436;SDS011;4757;59.334;18.034;2023-02-15T11:24:18;12.37;;;7.27;;
9436;SDS011;4757;59.334;18.034;2023-02-15T11:27:00;11.67;;;6.33;;
9436;SDS011;4757;59.334;18.034;2023-02-15T11:29:58;12.63;;;7.27;;
9436;SDS011;4757;59.334;18.034;2023-02-15T11:35:10;10.50;;;6.13;;
9436;SDS011;4757;59.334;18.034;2023-02-15T11:40:20;12.77;;;6.03;;
9436;SDS011;4757;59.334;18.034;2023-02-15T11:43:12;17.27;;;8.37;;
9436;SDS011;4757;59.334;18.034;2023-02-15T11:45:47;12.23;;;7.33;;
9436;SDS011;4757;59.334;18.034;2023-02-15T11:48:15;13.30;;;7.07;;
9436;SDS011;4757;59.334;18.034;2023-02-15T11:50:47;10.33;;;5.63;;
9436;SDS011;4757;59.334;18.034;2023-02-15T11:53:19;13.40;;;7.13;;
9436;SDS011;4757;59.334;18.034;2023-02-15T11:55:51;9.73;;;6.00;;
9436;SDS011;4757;59.334;18.034;2023-02-15T12:03:46;10.30;;;6.90;;
9436;SDS011;4757;59.334;18.034;2023-02-15T12:06:22;11.07;;;7.53;;
9436;SDS011;4757;59.334;18.034;2023-02-15T12:12:20;8.83;;;5.50;;
9436;SDS011;4757;59.334;18.034;2023-02-15T12:14:53;9.93;;;5.97;;
9436;SDS011;4757;59.334;18.034;2023-02-15T12:17:29;8.97;;;6.27;;
9436;SDS011;4757;59.334;18.034;2023-02-15T12:20:04;10.20;;;6.27;;
9436;SDS011;4757;59.334;18.034;2023-02-15T12:22:53;13.47;;;7.23;;
9436;SDS011;4757;59.334;18.034;2023-02-15T12:25:39;12.83;;;7.33;;
9436;SDS011;4757;59.334;18.034;2023-02-15T12:33:55;11.13;;;7.10;;
9436;SDS011;4757;59.334;18.034;2023-02-15T12:36:30;9.37;;;6.17;;
9436;SDS011;4757;59.334;18.034;2023-02-15T12:39:16;11.47;;;6.50;;
9436;SDS011;4757;59.334;18.034;2023-02-15T12:44:28;11.40;;;6.13;;
9436;SDS011;4757;59.334;18.034;2023-02-15T12:46:59;9.87;;;5.93;;
9436;SDS011;4757;59.334;18.034;2023-02-15T12:49:45;16.87;;;7.23;;
9436;SDS011;4757;59.334;18.034;2023-02-15T12:52:45;11.67;;;6.27;;
9436;SDS011;4757;59.334;18.034;2023-02-15T12:55:18;13.90;;;6.83;;
9436;SDS011;4757;59.334;18.034;2023-02-15T12:58:07;12.13;;;6.50;;
9436;SDS011;4757;59.334;18.034;2023-02-15T13:00:45;12.30;;;6.47;;
9436;SDS011;4757;59.334;18.034;2023-02-15T13:03:19;13.87;;;6.90;;
9436;SDS011;4757;59.334;18.034;2023-02-15T13:05:50;12.97;;;7.07;;
9436;SDS011;4757;59.334;18.034;2023-02-15T13:08:21;11.60;;;7.60;;
9436;SDS011;4757;59.334;18.034;2023-02-15T13:11:06;11.00;;;6.97;;
9436;SDS011;4757;59.334;18.034;2023-02-15T13:13:54;12.13;;;6.50;;
9436;SDS011;4757;59.334;18.034;2023-02-15T13:20:09;14.27;;;6.73;;
9436;SDS011;4757;59.334;18.034;2023-02-15T13:22:54;12.17;;;6.73;;
9436;SDS011;4757;59.334;18.034;2023-02-15T13:25:30;12.93;;;7.40;;
9436;SDS011;4757;59.334;18.034;2023-02-15T13:28:07;10.73;;;7.03;;
9436;SDS011;4757;59.334;18.034;2023-02-15T13:30:46;11.53;;;7.47;;
9436;SDS011;4757;59.334;18.034;2023-02-15T13:41:38;10.80;;;7.63;;
9436;SDS011;4757;59.334;18.034;2023-02-15T13:47:26;13.83;;;6.97;;
9436;SDS011;4757;59.334;18.034;2023-02-15T13:53:37;12.27;;;7.77;;
9436;SDS011;4757;59.334;18.034;2023-02-15T14:14:06;11.77;;;6.80;;
9436;SDS011;4757;59.334;18.034;2023-02-15T14:16:54;11.00;;;7.33;;
9436;SDS011;4757;59.334;18.034;2023-02-15T14:19:53;9.10;;;6.33;;
9436;SDS011;4757;59.334;18.034;2023-02-15T14:22:32;10.33;;;6.33;;
9436;SDS011;4757;59.334;18.034;2023-02-15T14:27:57;10.30;;;5.60;;
9436;SDS011;4757;59.334;18.034;2023-02-15T14:30:45;10.13;;;6.30;;
9436;SDS011;4757;59.334;18.034;2023-02-15T14:33:36;9.70;;;6.27;;
9436;SDS011;4757;59.334;18.034;2023-02-15T14:36:07;7.90;;;5.20;;
9436;SDS011;4757;59.334;18.034;2023-02-15T14:42:30;11.70;;;6.23;;
9436;SDS011;4757;59.334;18.034;2023-02-15T14:45:41;9.50;;;6.57;;
9436;SDS011;4757;59.334;18.034;2023-02-15T14:51:00;8.10;;;5.67;;
9436;SDS011;4757;59.334;18.034;2023-02-15T15:01:31;9.33;;;5.20;;
9436;SDS011;4757;59.334;18.034;2023-02-15T15:04:21;11.27;;;5.73;;
9436;SDS011;4757;59.334;18.034;2023-02-15T15:09:42;8.27;;;5.83;;
9436;SDS011;4757;59.334;18.034;2023-02-15T15:12:35;9.53;;;6.37;;
9436;SDS011;4757;59.334;18.034;2023-02-15T15:15:03;10.03;;;6.43;;
9436;SDS011;4757;59.334;18.034;2023-02-15T15:20:13;10.37;;;6.40;;
9436;SDS011;4757;59.334;18.034;2023-02-15T15:26:31;9.20;;;5.30;;
9436;SDS011;4757;59.334;18.034;2023-02-15T15:29:38;11.57;;;5.63;;
9436;SDS011;4757;59.334;18.034;2023-02-15T15:33:01;7.37;;;5.03;;
9436;SDS011;4757;59.334;18.034;2023-02-15T15:39:21;8.80;;;6.10;;
9436;SDS011;4757;59.334;18.034;2023-02-15T15:47:58;9.40;;;5.43;;
9436;SDS011;4757;59.334;18.034;2023-02-15T15:50:46;7.40;;;4.80;;
9436;SDS011;4757;59.334;18.034;2023-02-15T15:53:28;9.63;;;4.93;;
9436;SDS011;4757;59.334;18.034;2023-02-15T15:56:36;9.10;;;6.07;;
9436;SDS011;4757;59.334;18.034;2023-02-15T15:59:37;11.33;;;5.53;;
9436;SDS011;4757;59.334;18.034;2023-02-15T16:02:19;6.63;;;4.70;;
9436;SDS011;4757;59.334;18.034;2023-02-15T16:05:36;6.83;;;4.77;;
9436;SDS011;4757;59.334;18.034;2023-02-15T16:11:24;11.30;;;5.57;;
9436;SDS011;4757;59.334;18.034;2023-02-15T16:13:51;7.83;;;5.10;;
9436;SDS011;4757;59.334;18.034;2023-02-15T16:16:26;9.70;;;5.07;;
9436;SDS011;4757;59.334;18.034;2023-02-15T16:19:17;9.63;;;5.30;;
9436;SDS011;4757;59.334;18.034;2023-02-15T16:22:26;7.67;;;5.17;;
9436;SDS011;4757;59.334;18.034;2023-02-15T16:25:22;9.80;;;5.27;;
9436;SDS011;4757;59.334;18.034;2023-02-15T16:28:07;7.40;;;5.00;;
9436;SDS011;4757;59.334;18.034;2023-02-15T16:31:05;9.23;;;6.03;;
9436;SDS011;4757;59.334;18.034;2023-02-15T16:34:16;12.53;;;6.40;;
9436;SDS011;4757;59.334;18.034;2023-02-15T16:36:53;9.23;;;5.37;;
9436;SDS011;4757;59.334;18.034;2023-02-15T16:43:15;11.20;;;5.63;;
9436;SDS011;4757;59.334;18.034;2023-02-15T16:49:21;10.17;;;5.83;;
9436;SDS011;4757;59.334;18.034;2023-02-15T16:52:21;8.43;;;6.00;;
9436;SDS011;4757;59.334;18.034;2023-02-15T16:55:17;10.57;;;6.57;;
9436;SDS011;4757;59.334;18.034;2023-02-15T17:01:32;9.30;;;5.30;;
9436;SDS011;4757;59.334;18.034;2023-02-15T17:05:01;9.47;;;6.47;;
9436;SDS011;4757;59.334;18.034;2023-02-15T17:11:04;8.57;;;5.30;;
9436;SDS011;4757;59.334;18.034;2023-02-15T17:16:31;10.10;;;5.60;;
9436;SDS011;4757;59.334;18.034;2023-02-15T17:19:01;9.90;;;5.77;;
9436;SDS011;4757;59.334;18.034;2023-02-15T17:21:39;10.37;;;5.83;;
9436;SDS011;4757;59.334;18.034;2023-02-15T17:24:16;7.83;;;5.70;;
9436;SDS011;4757;59.334;18.034;2023-02-15T17:26:50;10.97;;;6.27;;
9436;SDS011;4757;59.334;18.034;2023-02-15T17:32:05;9.77;;;5.50;;
9436;SDS011;4757;59.334;18.034;2023-02-15T17:34:43;8.70;;;5.87;;
9436;SDS011;4757;59.334;18.034;2023-02-15T17:40:13;8.53;;;4.83;;
9436;SDS011;4757;59.334;18.034;2023-02-15T17:42:52;6.93;;;5.43;;
9436;SDS011;4757;59.334;18.034;2023-02-15T17:45:20;8.23;;;5.07;;
9436;SDS011;4757;59.334;18.034;2023-02-15T17:47:48;6.70;;;5.00;;
9436;SDS011;4757;59.334;18.034;2023-02-15T17:52:48;8.07;;;6.13;;
9436;SDS011;4757;59.334;18.034;2023-02-15T17:55:17;10.90;;;6.10;;
9436;SDS011;4757;59.334;18.034;2023-02-15T17:58:02;9.80;;;5.73;;
9436;SDS011;4757;59.334;18.034;2023-02-15T18:00:31;6.50;;;4.47;;
9436;SDS011;4757;59.334;18.034;2023-02-15T18:03:20;6.43;;;4.73;;
9436;SDS011;4757;59.334;18.034;2023-02-15T18:06:06;8.57;;;5.27;;
9436;SDS011;4757;59.334;18.034;2023-02-15T18:08:52;7.40;;;5.07;;
9436;SDS011;4757;59.334;18.034;2023-02-15T18:11:38;9.10;;;5.47;;
9436;SDS011;4757;59.334;18.034;2023-02-15T18:14:09;10.40;;;5.60;;
9436;SDS011;4757;59.334;18.034;2023-02-15T18:16:37;11.10;;;5.50;;
9436;SDS011;4757;59.334;18.034;2023-02-15T18:19:09;9.43;;;6.07;;
9436;SDS011;4757;59.334;18.034;2023-02-15T18:21:41;9.07;;;6.17;;
9436;SDS011;4757;59.334;18.034;2023-02-15T18:24:18;8.60;;;5.63;;
9436;SDS011;4757;59.334;18.034;2023-02-15T18:26:47;8.13;;;5.80;;
9436;SDS011;4757;59.334;18.034;2023-02-15T18:29:17;9.80;;;6.83;;
9436;SDS011;4757;59.334;18.034;2023-02-15T18:31:45;12.37;;;6.40;;
9436;SDS011;4757;59.334;18.034;2023-02-15T18:36:59;7.97;;;5.33;;
9436;SDS011;4757;59.334;18.034;2023-02-15T18:39:30;11.73;;;6.60;;
9436;SDS011;4757;59.334;18.034;2023-02-15T18:42:08;10.53;;;6.53;;
9436;SDS011;4757;59.334;18.034;2023-02-15T18:44:55;12.67;;;6.73;;
9436;SDS011;4757;59.334;18.034;2023-02-15T18:48:00;10.27;;;6.40;;
9436;SDS011;4757;59.334;18.034;2023-02-15T18:50:32;11.83;;;7.00;;
9436;SDS011;4757;59.334;18.034;2023-02-15T18:53:00;16.10;;;6.57;;
9436;SDS011;4757;59.334;18.034;2023-02-15T18:55:29;10.67;;;6.47;;
9436;SDS011;4757;59.334;18.034;2023-02-15T18:57:59;9.70;;;6.50;;
9436;SDS011;4757;59.334;18.034;2023-02-15T19:00:27;9.90;;;7.57;;
9436;SDS011;4757;59.334;18.034;2023-02-15T19:03:00;9.10;;;6.37;;
9436;SDS011;4757;59.334;18.034;2023-02-15T19:05:29;11.73;;;6.70;;
9436;SDS011;4757;59.334;18.034;2023-02-15T19:07:57;9.20;;;6.03;;
9436;SDS011;4757;59.334;18.034;2023-02-15T19:10:26;10.93;;;7.30;;
9436;SDS011;4757;59.334;18.034;2023-02-15T19:12:56;12.57;;;7.10;;
9436;SDS011;4757;59.334;18.034;2023-02-15T19:15:24;12.40;;;8.00;;
9436;SDS011;4757;59.334;18.034;2023-02-15T19:17:53;11.37;;;7.87;;
9436;SDS011;4757;59.334;18.034;2023-02-15T19:20:22;13.30;;;8.47;;
9436;SDS011;4757;59.334;18.034;2023-02-15T19:23:00;11.40;;;7.53;;
9436;SDS011;4757;59.334;18.034;2023-02-15T19:25:29;12.40;;;8.10;;
9436;SDS011;4757;59.334;18.034;2023-02-15T19:27:59;11.23;;;7.10;;
9436;SDS011;4757;59.334;18.034;2023-02-15T19:30:34;13.73;;;8.77;;
9436;SDS011;4757;59.334;18.034;2023-02-15T19:33:03;11.00;;;7.50;;
9436;SDS011;4757;59.334;18.034;2023-02-15T19:35:33;12.27;;;8.03;;
9436;SDS011;4757;59.334;18.034;2023-02-15T19:38:02;11.33;;;7.77;;
9436;SDS011;4757;59.334;18.034;2023-02-15T19:40:34;15.17;;;9.00;;
9436;SDS011;4757;59.334;18.034;2023-02-15T19:43:02;15.47;;;8.70;;
9436;SDS011;4757;59.334;18.034;2023-02-15T19:45:31;11.43;;;8.00;;
9436;SDS011;4757;59.334;18.034;2023-02-15T19:47:59;12.87;;;9.00;;
9436;SDS011;4757;59.334;18.034;2023-02-15T19:50:28;12.10;;;8.43;;
9436;SDS011;4757;59.334;18.034;2023-02-15T19:52:58;13.90;;;8.80;;